Terminal Aerodrome Forecast
Issued by NWS

Current Version | Previous Version | Text Only | Print | Product List | Glossary On
Versions: 1 2 3 4 5 6 7 8 9 10 11 12 13 14 15
000
FTUS45 KRIW 281700
TAFWRL
TAF
KWRL 281731Z 2818/0118 33006KT P6SM VCSH SCT020 BKN045
     FM010100 VRB04KT P6SM -SN SCT015 BKN030
     FM011000 VRB04KT P6SM VCFG SCT010 OVC020=

USA.gov is the U.S. government's official web portal to all federal, state and local government web resources and services.